createdAt,value
2016-12-10T00:00:24.608Z,24.15
2016-12-10T00:01:24.613Z,24.15
2016-12-10T00:02:24.621Z,24.24
2016-12-10T00:03:24.629Z,23.96
2016-12-10T00:04:25.636Z,24.05
2016-12-10T00:05:24.643Z,23.76
2016-12-10T00:06:25.101Z,23.66
2016-12-10T00:07:24.655Z,23.96
2016-12-10T00:08:24.662Z,23.57
2016-12-10T00:09:24.353Z,23.76
2016-12-10T00:10:24.675Z,23.76
2016-12-10T00:11:24.683Z,24.24
2016-12-10T00:12:24.373Z,23.86
2016-12-10T00:13:24.692Z,23.86
2016-12-10T00:14:24.386Z,23.76
2016-12-10T00:15:25.680Z,23.76
2016-12-10T00:16:24.401Z,23.66
2016-12-10T00:17:25.560Z,23.76
2016-12-10T00:18:24.413Z,24.34
2016-12-10T00:19:24.474Z,24.15
2016-12-10T00:20:24.740Z,24.34
2016-12-10T00:21:24.884Z,24.05
2016-12-10T00:22:24.753Z,24.05
2016-12-10T00:23:24.758Z,23.96
2016-12-10T00:24:24.815Z,23.96
2016-12-10T00:25:24.772Z,23.96
2016-12-10T00:26:24.829Z,23.86
2016-12-10T00:27:24.472Z,23.66
2016-12-10T00:28:25.944Z,24.24
2016-12-10T00:29:24.539Z,24.34
2016-12-10T00:30:24.812Z,23.86
2016-12-10T00:31:24.820Z,24.15
2016-12-10T00:32:24.562Z,24.05
2016-12-10T00:33:24.830Z,24.15
2016-12-10T00:34:24.831Z,24.24
2016-12-10T00:35:25.189Z,23.86
2016-12-10T00:36:24.849Z,23.66
2016-12-10T00:37:24.587Z,23.76
2016-12-10T00:38:24.548Z,23.57
2016-12-10T00:39:24.866Z,23.66
2016-12-10T00:40:24.874Z,23.76
2016-12-10T00:41:24.883Z,23.66
2016-12-10T00:42:24.882Z,23.86
2016-12-10T00:43:24.894Z,23.86
2016-12-10T00:44:24.901Z,23.76
2016-12-10T00:45:24.906Z,23.57
2016-12-10T00:46:25.705Z,23.76
2016-12-10T00:47:24.921Z,23.86
2016-12-10T00:48:25.527Z,23.38
2016-12-10T00:49:24.620Z,23.76
2016-12-10T00:50:24.625Z,23.76
2016-12-10T00:51:24.691Z,23.66
2016-12-10T00:52:24.956Z,23.66
2016-12-10T00:53:24.645Z,23.66
2016-12-10T00:54:24.653Z,23.76
2016-12-10T00:55:24.971Z,23.76
2016-12-10T00:56:24.671Z,23.76
2016-12-10T00:57:24.670Z,23.66
2016-12-10T00:58:24.992Z,23.66
2016-12-10T00:59:24.689Z,23.57
2016-12-10T01:00:25.008Z,23.57
2016-12-10T01:01:24.701Z,23.76
2016-12-10T01:02:24.707Z,23.57
2016-12-10T01:03:25.029Z,23.57
2016-12-10T01:04:25.033Z,23.57
2016-12-10T01:05:25.040Z,23.66
2016-12-10T01:06:24.736Z,23.57
2016-12-10T01:07:24.740Z,23.76
2016-12-10T01:08:25.056Z,23.86
2016-12-10T01:09:25.116Z,23.86
2016-12-10T01:10:24.771Z,23.47
2016-12-10T01:11:24.817Z,23.66
2016-12-10T01:12:24.774Z,23.66
2016-12-10T01:13:25.093Z,23.76
2016-12-10T01:14:25.101Z,23.76
2016-12-10T01:15:25.106Z,23.66
2016-12-10T01:16:25.164Z,23.76
2016-12-10T01:17:25.121Z,23.66
2016-12-10T01:18:25.226Z,23.86
2016-12-10T01:19:25.624Z,23.76
2016-12-10T01:20:25.139Z,23.66
2016-12-10T01:21:25.150Z,23.76
2016-12-10T01:22:25.152Z,23.66
2016-12-10T01:23:25.158Z,23.66
2016-12-10T01:24:24.852Z,23.66
2016-12-10T01:25:24.862Z,23.76
2016-12-10T01:26:25.209Z,23.47
2016-12-10T01:27:25.217Z,23.66
2016-12-10T01:28:25.194Z,23.66
2016-12-10T01:29:24.883Z,23.66
2016-12-10T01:30:26.041Z,23.76
2016-12-10T01:31:24.900Z,23.57
2016-12-10T01:32:25.270Z,23.66
2016-12-10T01:33:25.313Z,23.86
2016-12-10T01:34:25.230Z,23.66
2016-12-10T01:35:24.924Z,24.05
2016-12-10T01:36:25.243Z,23.96
2016-12-10T01:37:24.988Z,23.76
2016-12-10T01:38:24.945Z,24.34
2016-12-10T01:39:25.315Z,24.24
2016-12-10T01:40:25.270Z,23.96
2016-12-10T01:41:25.276Z,23.86
2016-12-10T01:42:25.283Z,23.86
2016-12-10T01:43:25.628Z,23.66
2016-12-10T01:44:25.298Z,23.66
2016-12-10T01:45:24.997Z,23.86
2016-12-10T01:46:25.310Z,23.66
2016-12-10T01:47:25.319Z,23.57
2016-12-10T01:48:25.323Z,23.76
2016-12-10T01:49:25.014Z,23.76
2016-12-10T01:50:25.072Z,23.66
2016-12-10T01:51:25.029Z,23.57
2016-12-10T01:52:25.034Z,23.76
2016-12-10T01:53:25.356Z,23.76
2016-12-10T01:54:25.056Z,23.66
2016-12-10T01:55:25.053Z,23.76
2016-12-10T01:56:25.374Z,23.66
2016-12-10T01:57:25.067Z,23.57
2016-12-10T01:58:25.074Z,23.57
2016-12-10T01:59:25.397Z,23.86
2016-12-10T02:00:25.085Z,23.86
2016-12-10T02:01:25.095Z,23.76
2016-12-10T02:02:25.104Z,23.76
2016-12-10T02:03:25.669Z,23.66
2016-12-10T02:04:25.113Z,23.47
2016-12-10T02:05:25.122Z,23.66
2016-12-10T02:06:25.127Z,23.66
2016-12-10T02:07:25.443Z,23.76
2016-12-10T02:08:25.451Z,24.05
2016-12-10T02:09:25.458Z,23.66
2016-12-10T02:10:25.151Z,23.76
2016-12-10T02:11:25.211Z,23.76
2016-12-10T02:12:25.477Z,23.76
2016-12-10T02:13:25.482Z,23.76
2016-12-10T02:14:25.875Z,23.86
2016-12-10T02:15:25.500Z,23.66
2016-12-10T02:16:25.503Z,23.96
2016-12-10T02:17:25.509Z,23.96
2016-12-10T02:18:25.516Z,23.96
2016-12-10T02:19:25.210Z,23.86
2016-12-10T02:20:25.218Z,23.76
2016-12-10T02:21:25.538Z,23.76
2016-12-10T02:22:25.541Z,23.86
2016-12-10T02:23:25.232Z,23.86
2016-12-10T02:24:25.291Z,23.76
2016-12-10T02:25:26.396Z,23.66
2016-12-10T02:26:25.254Z,23.76
2016-12-10T02:27:26.026Z,23.66
2016-12-10T02:28:25.577Z,23.76
2016-12-10T02:29:25.584Z,23.47
2016-12-10T02:30:25.281Z,23.66
2016-12-10T02:31:25.598Z,23.66
2016-12-10T02:32:25.291Z,23.57
2016-12-10T02:33:25.613Z,23.66
2016-12-10T02:34:25.669Z,23.76
2016-12-10T02:35:25.311Z,23.57
2016-12-10T02:36:26.604Z,23.57
2016-12-10T02:37:25.638Z,23.76
2016-12-10T02:38:26.544Z,23.57
2016-12-10T02:39:25.648Z,23.66
2016-12-10T02:40:25.344Z,23.96
2016-12-10T02:41:25.346Z,23.96
2016-12-10T02:42:25.667Z,23.86
2016-12-10T02:43:25.411Z,23.66
2016-12-10T02:44:25.680Z,23.66
2016-12-10T02:45:25.734Z,23.57
2016-12-10T02:46:25.694Z,23.66
2016-12-10T02:47:25.699Z,23.66
2016-12-10T02:48:25.708Z,23.66
2016-12-10T02:49:26.713Z,23.66
2016-12-10T02:50:25.716Z,23.57
2016-12-10T02:51:25.723Z,23.76
2016-12-10T02:52:25.728Z,23.47
2016-12-10T02:53:25.475Z,23.66
2016-12-10T02:54:25.742Z,23.96
2016-12-10T02:55:25.438Z,23.76
2016-12-10T02:56:25.759Z,23.66
2016-12-10T02:57:25.762Z,23.47
2016-12-10T02:58:25.506Z,23.38
2016-12-10T02:59:25.462Z,23.38
2016-12-10T03:00:25.781Z,23.57
2016-12-10T03:01:25.526Z,23.66
2016-12-10T03:02:25.841Z,23.47
2016-12-10T03:03:25.492Z,23.66
2016-12-10T03:04:25.817Z,23.57
2016-12-10T03:05:25.812Z,23.57
2016-12-10T03:06:25.819Z,23.57
2016-12-10T03:07:25.857Z,23.66
2016-12-10T03:08:25.832Z,23.66
2016-12-10T03:09:26.387Z,23.57
2016-12-10T03:10:25.845Z,23.66
2016-12-10T03:11:25.538Z,23.57
2016-12-10T03:12:25.854Z,23.66
2016-12-10T03:13:25.548Z,23.38
2016-12-10T03:14:25.557Z,23.28
2016-12-10T03:15:25.876Z,23.57
2016-12-10T03:16:25.881Z,23.47
2016-12-10T03:17:25.920Z,23.66
2016-12-10T03:18:25.893Z,23.38
2016-12-10T03:19:25.950Z,23.38
2016-12-10T03:20:26.857Z,23.18
2016-12-10T03:21:25.649Z,23.28
2016-12-10T03:22:26.169Z,23.28
2016-12-10T03:23:25.925Z,23.28
2016-12-10T03:24:25.619Z,23.18
2016-12-10T03:25:25.629Z,23.28
2016-12-10T03:26:25.943Z,23.28
2016-12-10T03:27:25.637Z,23.28
2016-12-10T03:28:26.008Z,23.18
2016-12-10T03:29:25.964Z,23.28
2016-12-10T03:30:25.972Z,23.28
2016-12-10T03:31:25.980Z,23.38
2016-12-10T03:32:25.970Z,23.38
2016-12-10T03:33:26.689Z,23.38
2016-12-10T03:34:25.995Z,23.28
2016-12-10T03:35:25.741Z,23.38
2016-12-10T03:36:25.695Z,23.47
2016-12-10T03:37:26.010Z,23.38
2016-12-10T03:38:25.710Z,23.38
2016-12-10T03:39:25.714Z,23.28
2016-12-10T03:40:26.045Z,23.18
2016-12-10T03:41:25.727Z,23.18
2016-12-10T03:42:25.734Z,23.28
2016-12-10T03:43:25.737Z,23.28
2016-12-10T03:44:26.960Z,23.28
2016-12-10T03:45:26.066Z,23.38
2016-12-10T03:46:26.122Z,23.28
2016-12-10T03:47:25.764Z,23.28
2016-12-10T03:48:25.771Z,23.28
2016-12-10T03:49:25.779Z,23.28
2016-12-10T03:50:25.782Z,23.18
2016-12-10T03:51:26.100Z,23.28
2016-12-10T03:52:26.107Z,23.47
2016-12-10T03:53:26.114Z,23.38
2016-12-10T03:54:25.806Z,23.38
2016-12-10T03:55:25.812Z,23.38
2016-12-10T03:56:25.821Z,23.47
2016-12-10T03:57:26.137Z,23.38
2016-12-10T03:58:25.833Z,23.38
2016-12-10T03:59:25.834Z,23.38
2016-12-10T04:00:26.154Z,23.28
2016-12-10T04:01:25.847Z,23.28
2016-12-10T04:02:26.178Z,23.38
2016-12-10T04:03:26.189Z,23.28
2016-12-10T04:04:26.531Z,23.38
2016-12-10T04:05:25.872Z,23.28
2016-12-10T04:06:26.194Z,23.38
2016-12-10T04:07:26.277Z,23.38
2016-12-10T04:08:26.204Z,23.28
2016-12-10T04:09:26.210Z,23.38
2016-12-10T04:10:25.957Z,23.28
2016-12-10T04:11:25.911Z,23.38
2016-12-10T04:12:26.230Z,23.28
2016-12-10T04:13:26.268Z,23.38
2016-12-10T04:14:25.927Z,23.66
2016-12-10T04:15:27.099Z,23.57
2016-12-10T04:16:26.265Z,23.76
2016-12-10T04:17:26.713Z,23.76
2016-12-10T04:18:26.264Z,23.66
2016-12-10T04:19:26.293Z,23.38
2016-12-10T04:20:25.964Z,23.38
2016-12-10T04:21:26.284Z,23.38
2016-12-10T04:22:25.978Z,23.38
2016-12-10T04:23:26.035Z,23.28
2016-12-10T04:24:26.302Z,23.18
2016-12-10T04:25:26.308Z,23.28
2016-12-10T04:26:26.315Z,23.66
2016-12-10T04:27:26.320Z,23.28
2016-12-10T04:28:27.484Z,23.28
2016-12-10T04:29:26.332Z,23.38
2016-12-10T04:30:26.026Z,23.47
2016-12-10T04:31:26.346Z,23.38
2016-12-10T04:32:26.350Z,23.28
2016-12-10T04:33:26.408Z,23.28
2016-12-10T04:34:26.052Z,23.18
2016-12-10T04:35:26.623Z,23.57
2016-12-10T04:36:26.064Z,23.18
2016-12-10T04:37:26.386Z,23.18
2016-12-10T04:38:26.388Z,23.38
2016-12-10T04:39:26.395Z,23.38
2016-12-10T04:40:26.403Z,23.38
2016-12-10T04:41:26.407Z,23.18
2016-12-10T04:42:26.152Z,23.18
2016-12-10T04:43:26.106Z,23.28
2016-12-10T04:44:26.427Z,23.28
2016-12-10T04:45:26.482Z,23.28
2016-12-10T04:46:26.727Z,23.28
2016-12-10T04:47:26.136Z,23.28
2016-12-10T04:48:26.457Z,23.66
2016-12-10T04:49:26.459Z,23.38
2016-12-10T04:50:26.463Z,23.28
2016-12-10T04:51:26.160Z,23.28
2016-12-10T04:52:26.477Z,23.28
2016-12-10T04:53:26.483Z,23.28
2016-12-10T04:54:26.174Z,23.38
2016-12-10T04:55:26.183Z,23.28
2016-12-10T04:56:26.498Z,23.28
2016-12-10T04:57:27.673Z,23.38
2016-12-10T04:58:26.515Z,23.66
2016-12-10T04:59:27.119Z,23.38
2016-12-10T05:00:26.527Z,23.28
2016-12-10T05:01:26.532Z,23.28
2016-12-10T05:02:26.540Z,23.38
2016-12-10T05:03:26.233Z,23.38
2016-12-10T05:04:26.239Z,23.76
2016-12-10T05:05:26.558Z,23.66
2016-12-10T05:06:26.249Z,23.47
2016-12-10T05:07:26.571Z,23.28
2016-12-10T05:08:26.828Z,23.38
2016-12-10T05:09:26.271Z,23.47
2016-12-10T05:10:26.276Z,23.28
2016-12-10T05:11:26.596Z,23.18
2016-12-10T05:12:27.039Z,23.28
2016-12-10T05:13:26.606Z,23.28
2016-12-10T05:14:26.614Z,23.28
2016-12-10T05:15:26.308Z,23.38
2016-12-10T05:16:26.677Z,23.38
2016-12-10T05:17:26.371Z,23.57
2016-12-10T05:18:26.641Z,23.66
2016-12-10T05:19:26.335Z,23.66
2016-12-10T05:20:26.650Z,23.66
2016-12-10T05:21:26.345Z,23.36
2016-12-10T05:22:26.671Z,23.57
2016-12-10T05:23:27.171Z,23.66
2016-12-10T05:24:26.410Z,23.65
2016-12-10T05:25:26.684Z,23.75
2016-12-10T05:26:26.687Z,23.76
2016-12-10T05:27:26.693Z,23.75
2016-12-10T05:28:26.704Z,23.76
2016-12-10T05:29:26.706Z,23.56
2016-12-10T05:30:26.764Z,23.66
2016-12-10T05:31:26.404Z,23.57
2016-12-10T05:32:26.419Z,23.28
2016-12-10T05:33:26.744Z,23.57
2016-12-10T05:34:27.276Z,23.38
2016-12-10T05:35:26.745Z,23.38
2016-12-10T05:36:26.763Z,23.18
2016-12-10T05:37:26.758Z,23.17
2016-12-10T05:38:26.761Z,23.38
2016-12-10T05:39:26.768Z,23.36
2016-12-10T05:40:26.776Z,23.38
2016-12-10T05:41:26.470Z,23.66
2016-12-10T05:42:26.790Z,23.76
2016-12-10T05:43:26.533Z,23.75
2016-12-10T05:44:26.802Z,23.86
2016-12-10T05:45:26.743Z,23.76
2016-12-10T05:46:26.809Z,23.66
2016-12-10T05:47:26.508Z,23.76
2016-12-10T05:48:26.826Z,23.76
2016-12-10T05:49:26.520Z,23.66
2016-12-10T05:50:26.575Z,23.65
2016-12-10T05:51:26.846Z,23.66
2016-12-10T05:52:26.538Z,23.66
2016-12-10T05:53:26.855Z,23.65
2016-12-10T05:54:27.840Z,23.57
2016-12-10T05:55:26.919Z,23.66
2016-12-10T05:56:27.150Z,23.76
2016-12-10T05:57:26.568Z,23.86
2016-12-10T05:58:26.889Z,23.76
2016-12-10T05:59:26.893Z,23.66
2016-12-10T06:00:26.899Z,23.57
2016-12-10T06:01:26.906Z,23.57
2016-12-10T06:02:26.911Z,23.57
2016-12-10T06:03:26.914Z,23.38
2016-12-10T06:04:26.613Z,23.66
2016-12-10T06:05:26.929Z,23.57
2016-12-10T06:06:26.938Z,23.38
2016-12-10T06:07:26.993Z,23.57
2016-12-10T06:08:26.631Z,23.57
2016-12-10T06:09:28.075Z,23.38
2016-12-10T06:10:26.959Z,23.28
2016-12-10T06:11:27.016Z,23.28
2016-12-10T06:12:26.974Z,23.18
2016-12-10T06:13:26.665Z,23.46
2016-12-10T06:14:26.984Z,23.57
2016-12-10T06:15:26.680Z,23.47
2016-12-10T06:16:26.685Z,23.65
2016-12-10T06:17:26.687Z,23.75
2016-12-10T06:18:27.010Z,23.65
2016-12-10T06:19:27.014Z,23.75
2016-12-10T06:20:27.873Z,23.57
2016-12-10T06:21:26.712Z,23.66
2016-12-10T06:22:27.034Z,23.57
2016-12-10T06:23:26.726Z,23.28
2016-12-10T06:24:27.095Z,23.56
2016-12-10T06:25:26.739Z,23.57
2016-12-10T06:26:27.061Z,23.38
2016-12-10T06:27:27.063Z,23.27
2016-12-10T06:28:26.757Z,23.38
2016-12-10T06:29:26.763Z,23.28
2016-12-10T06:30:27.078Z,23.38
2016-12-10T06:31:28.041Z,23.28
2016-12-10T06:32:27.094Z,23.28
2016-12-10T06:33:27.100Z,23.08
2016-12-10T06:34:26.798Z,23.38
2016-12-10T06:35:26.802Z,23.28
2016-12-10T06:36:27.117Z,23.38
2016-12-10T06:37:26.812Z,23.18
2016-12-10T06:38:26.819Z,23.38
2016-12-10T06:39:26.824Z,23.28
2016-12-10T06:40:27.143Z,23.28
2016-12-10T06:41:26.836Z,23.18
2016-12-10T06:42:27.794Z,23.28
2016-12-10T06:43:27.164Z,23.28
2016-12-10T06:44:26.856Z,23.28
2016-12-10T06:45:26.863Z,23.18
2016-12-10T06:46:27.183Z,23.18
2016-12-10T06:47:27.187Z,23.18
2016-12-10T06:48:26.928Z,23.17
2016-12-10T06:49:27.202Z,23.28
2016-12-10T06:50:26.941Z,23.27
2016-12-10T06:51:26.900Z,23.38
2016-12-10T06:52:27.218Z,23.28
2016-12-10T06:53:27.872Z,23.27
2016-12-10T06:54:27.228Z,23.38
2016-12-10T06:55:26.923Z,23.28
2016-12-10T06:56:26.928Z,23.38
2016-12-10T06:57:27.250Z,23.57
2016-12-10T06:58:26.940Z,23.28
2016-12-10T06:59:26.949Z,23.28
2016-12-10T07:00:26.950Z,23.28
2016-12-10T07:01:27.273Z,23.27
2016-12-10T07:02:27.277Z,23.18
2016-12-10T07:03:26.974Z,23.18
2016-12-10T07:04:27.743Z,23.47
2016-12-10T07:05:27.347Z,23.28
2016-12-10T07:06:26.991Z,23.28
2016-12-10T07:07:26.998Z,23.47
2016-12-10T07:08:27.316Z,23.28
2016-12-10T07:09:27.009Z,23.47
2016-12-10T07:10:27.326Z,23.28
2016-12-10T07:11:27.341Z,23.28
2016-12-10T07:12:27.026Z,23.86
2016-12-10T07:13:27.348Z,23.66
2016-12-10T07:14:27.354Z,23.38
2016-12-10T07:15:27.200Z,23.38
2016-12-10T07:16:27.055Z,22.99
2016-12-10T07:17:28.345Z,22.99
2016-12-10T07:18:27.376Z,23.66
2016-12-10T07:19:27.390Z,22.99
2016-12-10T07:20:27.389Z,23.28
2016-12-10T07:21:27.082Z,23.28
2016-12-10T07:22:27.452Z,23.47
2016-12-10T07:23:27.409Z,23.38
2016-12-10T07:24:27.416Z,23.66
2016-12-10T07:25:27.418Z,23.38
2016-12-10T07:26:27.214Z,23.36
2016-12-10T07:27:27.173Z,23.28
2016-12-10T07:28:27.128Z,23.57
2016-12-10T07:29:27.133Z,23.66
2016-12-10T07:30:27.140Z,23.57
2016-12-10T07:31:27.457Z,23.66
2016-12-10T07:32:27.465Z,23.57
2016-12-10T07:33:27.470Z,22.99
2016-12-10T07:34:27.526Z,23.28
2016-12-10T07:35:27.532Z,23.28
2016-12-10T07:36:27.177Z,22.99
2016-12-10T07:37:27.181Z,22.61
2016-12-10T07:38:27.502Z,22.23
2016-12-10T07:39:28.514Z,22.61
2016-12-10T07:40:27.512Z,22.03
2016-12-10T07:41:27.775Z,21.85
2016-12-10T07:42:27.212Z,22.24
2016-12-10T07:43:27.528Z,21.77
2016-12-10T07:44:27.224Z,21.77
2016-12-10T07:45:27.595Z,21.48
2016-12-10T07:46:27.238Z,21.19
2016-12-10T07:47:27.611Z,20.99
2016-12-10T07:48:27.252Z,20.9
2016-12-10T07:49:27.254Z,21
2016-12-10T07:50:28.689Z,20.71
2016-12-10T07:51:27.611Z,20.62
2016-12-10T07:52:27.635Z,20.72
2016-12-10T07:53:27.591Z,20.43
2016-12-10T07:54:27.599Z,19.95
2016-12-10T07:55:27.604Z,20.04
2016-12-10T07:56:27.298Z,20.06
2016-12-10T07:57:27.617Z,19.95
2016-12-10T07:58:27.312Z,19.86
2016-12-10T07:59:27.317Z,19.96
2016-12-10T08:00:27.325Z,19.67
2016-12-10T08:01:28.129Z,19.96
2016-12-10T08:02:27.648Z,19.67
2016-12-10T08:03:27.654Z,19.67
2016-12-10T08:04:27.395Z,19.47
2016-12-10T08:05:27.664Z,19.67
2016-12-10T08:06:27.676Z,19.86
2016-12-10T08:07:27.678Z,19.57
2016-12-10T08:08:27.734Z,19.68
2016-12-10T08:09:27.381Z,19.96
2016-12-10T08:10:27.751Z,19.68
2016-12-10T08:11:27.390Z,19.68
2016-12-10T08:12:28.548Z,19.58
2016-12-10T08:13:28.106Z,19.58
2016-12-10T08:14:27.723Z,19.68
2016-12-10T08:15:27.729Z,19.29
2016-12-10T08:16:27.737Z,19.78
2016-12-10T08:17:27.743Z,19.68
2016-12-10T08:18:27.748Z,19.29
2016-12-10T08:19:27.442Z,19.09
2016-12-10T08:20:27.452Z,19.09
2016-12-10T08:21:27.820Z,19.19
2016-12-10T08:22:27.461Z,19.09
2016-12-10T08:23:27.981Z,19
2016-12-10T08:24:27.789Z,19.09
2016-12-10T08:25:28.772Z,19
2016-12-10T08:26:27.799Z,19.09
2016-12-10T08:27:28.259Z,19.19
2016-12-10T08:29:27.508Z,19.09
2016-12-10T08:30:27.514Z,19.58
2016-12-10T08:31:27.834Z,19.68
2016-12-10T08:32:27.525Z,19.87
2016-12-10T08:33:27.535Z,19.09
2016-12-10T08:34:27.542Z,19.19
2016-12-10T08:35:27.859Z,19.68
2016-12-10T08:36:27.554Z,19.09
2016-12-10T08:37:27.872Z,19.09
2016-12-10T08:38:27.662Z,19.09
2016-12-10T08:39:27.576Z,19
2016-12-10T08:40:27.893Z,19.29
2016-12-10T08:41:27.896Z,19.78
2016-12-10T08:42:27.909Z,19.09
2016-12-10T08:43:27.912Z,19.19
2016-12-10T08:44:27.917Z,19.09
2016-12-10T08:45:27.615Z,19.29
2016-12-10T08:46:27.936Z,19.09
2016-12-10T08:47:28.939Z,19.48
2016-12-10T08:48:27.993Z,19.87
2016-12-10T08:49:27.842Z,19.87
2016-12-10T08:50:27.957Z,19.87
2016-12-10T08:51:27.968Z,19.68
2016-12-10T08:52:27.971Z,19.68
2016-12-10T08:53:27.978Z,19.78
2016-12-10T08:54:27.671Z,19.48
2016-12-10T08:55:28.091Z,19.68
2016-12-10T08:56:28.048Z,19.68
2016-12-10T08:57:28.005Z,19.58
2016-12-10T08:58:28.802Z,19.78
2016-12-10T08:59:27.709Z,19.58
2016-12-10T09:00:28.075Z,19.58
2016-12-10T09:01:27.722Z,19.29
2016-12-10T09:02:27.733Z,19.68
2016-12-10T09:03:27.732Z,19.78
2016-12-10T09:04:28.052Z,19.78
2016-12-10T09:05:28.061Z,19.87
2016-12-10T09:06:27.753Z,19.78
2016-12-10T09:07:28.073Z,19.87
2016-12-10T09:08:28.080Z,19.58
2016-12-10T09:09:28.638Z,19.68
2016-12-10T09:10:28.092Z,19.68
2016-12-10T09:11:27.788Z,19.96
2016-12-10T09:12:28.603Z,19.68
2016-12-10T09:13:28.968Z,19.58
2016-12-10T09:14:28.118Z,19.87
2016-12-10T09:15:27.813Z,19.68
2016-12-10T09:16:27.825Z,19.58
2016-12-10T09:17:28.140Z,19.29
2016-12-10T09:18:27.835Z,19.29
2016-12-10T09:19:27.889Z,19.87
2016-12-10T09:20:27.846Z,19.68
2016-12-10T09:21:28.165Z,19.58
2016-12-10T09:22:28.176Z,19.87
2016-12-10T09:23:28.181Z,19.68
2016-12-10T09:24:28.641Z,19.09
2016-12-10T09:25:27.883Z,19.2
2016-12-10T09:26:27.889Z,19.4
2016-12-10T09:27:28.208Z,19.29
2016-12-10T09:28:28.213Z,19.58
2016-12-10T09:29:28.222Z,19.78
2016-12-10T09:30:28.231Z,19.78
2016-12-10T09:31:28.235Z,19.68
2016-12-10T09:32:28.292Z,19.78
2016-12-10T09:33:29.140Z,19.96
2016-12-10T09:34:27.945Z,19.78
2016-12-10T09:35:28.369Z,19.68
2016-12-10T09:36:28.269Z,20.06
2016-12-10T09:37:27.969Z,20.06
2016-12-10T09:38:28.284Z,19.68
2016-12-10T09:39:28.027Z,19.58
2016-12-10T09:40:27.984Z,19.78
2016-12-10T09:41:28.338Z,19.78
2016-12-10T09:42:28.311Z,19.87
2016-12-10T09:43:28.002Z,19.87
2016-12-10T09:44:28.012Z,19.58
2016-12-10T09:45:28.332Z,19.78
2016-12-10T09:46:28.026Z,19.68
2016-12-10T09:47:28.345Z,19.87
2016-12-10T09:48:28.350Z,19.68
2016-12-10T09:49:28.359Z,20.16
2016-12-10T09:50:28.417Z,19.68
2016-12-10T09:51:28.062Z,19.87
2016-12-10T09:52:28.065Z,19.68
2016-12-10T09:53:28.074Z,19.96
2016-12-10T09:54:28.392Z,19.96
2016-12-10T09:55:28.401Z,19.96
2016-12-10T09:56:28.458Z,19.58
2016-12-10T09:57:29.004Z,19.96
2016-12-10T09:58:28.421Z,19.68
2016-12-10T09:59:28.116Z,19.58
2016-12-10T10:00:28.490Z,19.96
2016-12-10T10:01:28.442Z,19.87
2016-12-10T10:02:28.448Z,19.87
2016-12-10T10:03:28.147Z,19.96
2016-12-10T10:04:28.202Z,19.48
2016-12-10T10:05:28.472Z,19.87
2016-12-10T10:06:28.479Z,19.87
2016-12-10T10:07:28.177Z,19.78
2016-12-10T10:08:29.341Z,19.78
2016-12-10T10:09:28.499Z,19.87
2016-12-10T10:10:28.509Z,19.48
2016-12-10T10:11:28.514Z,19.58
2016-12-10T10:12:28.207Z,19.58
2016-12-10T10:13:28.525Z,19.87
2016-12-10T10:14:28.224Z,19.58
2016-12-10T10:15:28.541Z,20.16
2016-12-10T10:16:28.233Z,19.48
2016-12-10T10:17:28.585Z,19.78
2016-12-10T10:18:28.562Z,19.78
2016-12-10T10:19:29.106Z,19.68
2016-12-10T10:20:28.577Z,19.87
2016-12-10T10:21:28.581Z,19.87
2016-12-10T10:22:28.595Z,19.87
2016-12-10T10:23:28.283Z,19.87
2016-12-10T10:24:28.617Z,19.68
2016-12-10T10:25:28.302Z,19.87
2016-12-10T10:26:28.308Z,19.78
2016-12-10T10:27:28.312Z,19.96
2016-12-10T10:28:28.681Z,19.87
2016-12-10T10:29:28.640Z,19.96
2016-12-10T10:30:29.248Z,19.78
2016-12-10T10:31:28.654Z,19.38
2016-12-10T10:32:28.658Z,19.78
2016-12-10T10:33:28.356Z,20.16
2016-12-10T10:34:28.674Z,19.78
2016-12-10T10:35:28.366Z,19.48
2016-12-10T10:36:28.690Z,19.87
2016-12-10T10:37:28.384Z,19.48
2016-12-10T10:38:28.751Z,19.78
2016-12-10T10:39:28.398Z,19.48
2016-12-10T10:40:28.731Z,19.87
2016-12-10T10:41:29.213Z,19.38
2016-12-10T10:42:28.738Z,20.06
2016-12-10T10:43:28.738Z,19.48
2016-12-10T10:44:28.791Z,19.48
2016-12-10T10:45:28.486Z,19.48
2016-12-10T10:46:28.759Z,19.96
2016-12-10T10:47:28.453Z,19.78
2016-12-10T10:48:28.459Z,20.06
2016-12-10T10:49:28.778Z,19.58
2016-12-10T10:50:28.786Z,20.06
2016-12-10T10:51:28.794Z,19.58
2016-12-10T10:52:29.579Z,19.48
2016-12-10T10:53:28.804Z,19.38
2016-12-10T10:54:28.503Z,19.48
2016-12-10T10:55:28.821Z,19.78
2016-12-10T10:56:28.826Z,19.96
2016-12-10T10:57:28.832Z,19.78
2016-12-10T10:58:28.839Z,19.58
2016-12-10T10:59:28.536Z,19.38
2016-12-10T11:00:28.545Z,19.38
2016-12-10T11:01:28.554Z,19.48
2016-12-10T11:02:28.558Z,19.96
2016-12-10T11:03:28.864Z,19.96
2016-12-10T11:04:28.572Z,19.96
2016-12-10T11:05:28.890Z,20.06
2016-12-10T11:06:28.900Z,19.87
2016-12-10T11:07:29.391Z,19.58
2016-12-10T11:08:28.599Z,19.87
2016-12-10T11:09:28.968Z,20.06
2016-12-10T11:10:28.925Z,19.96
2016-12-10T11:11:28.933Z,20.16
2016-12-10T11:12:28.626Z,19.96
2016-12-10T11:13:28.953Z,19.38
2016-12-10T11:14:28.642Z,19.58
2016-12-10T11:15:28.697Z,19.87
2016-12-10T11:16:28.977Z,20.16
2016-12-10T11:17:28.980Z,20.26
2016-12-10T11:18:29.038Z,19.96
2016-12-10T11:19:28.990Z,19.96
2016-12-10T11:20:28.683Z,19.48
2016-12-10T11:21:28.692Z,20.36
2016-12-10T11:22:28.697Z,20.45
2016-12-10T11:23:29.017Z,19.48
2016-12-10T11:24:29.075Z,19.58
2016-12-10T11:25:29.031Z,19.58
2016-12-10T11:26:29.039Z,19.68
2016-12-10T11:27:30.048Z,19.87
2016-12-10T11:28:28.739Z,20.06
2016-12-10T11:29:28.896Z,20.16
2016-12-10T11:30:28.756Z,19.96
2016-12-10T11:31:29.071Z,20.16
2016-12-10T11:32:29.079Z,20.06
2016-12-10T11:33:28.774Z,19.96
2016-12-10T11:34:29.144Z,20.16
2016-12-10T11:35:29.157Z,19.96
2016-12-10T11:36:29.175Z,19.78
2016-12-10T11:37:29.129Z,20.06
2016-12-10T11:38:28.810Z,20.06
2016-12-10T11:39:28.818Z,19.96
2016-12-10T11:40:28.824Z,19.96
2016-12-10T11:41:29.195Z,19.96
2016-12-10T11:42:29.202Z,20.26
2016-12-10T11:43:29.171Z,19.96
2016-12-10T11:44:29.220Z,20.06
2016-12-10T11:45:29.220Z,19.96
2016-12-10T11:46:29.180Z,19.78
2016-12-10T11:47:28.871Z,19.96
2016-12-10T11:48:28.880Z,20.16
2016-12-10T11:49:30.251Z,19.87
2016-12-10T11:50:28.959Z,20.06
2016-12-10T11:51:29.216Z,20.16
2016-12-10T11:52:29.222Z,19.87
2016-12-10T11:53:28.915Z,20.06
2016-12-10T11:54:29.235Z,19.96
2016-12-10T11:55:29.244Z,20.06
2016-12-10T11:56:29.246Z,20.06
2016-12-10T11:57:29.260Z,20.06
2016-12-10T11:58:28.955Z,20.36
2016-12-10T11:59:28.956Z,19.87
2016-12-10T12:00:29.277Z,20.06
2016-12-10T12:01:29.023Z,19.96
2016-12-10T12:02:28.978Z,19.96
2016-12-10T12:03:28.986Z,20.16
2016-12-10T12:04:30.307Z,20.16
2016-12-10T12:05:29.050Z,20.16
2016-12-10T12:06:29.322Z,19.87
2016-12-10T12:07:29.016Z,20.06
2016-12-10T12:08:29.334Z,20.06
2016-12-10T12:09:29.028Z,19.96
2016-12-10T12:10:29.348Z,20.06
2016-12-10T12:11:29.044Z,19.96
2016-12-10T12:12:29.361Z,19.96
2016-12-10T12:13:29.372Z,19.87
2016-12-10T12:14:29.428Z,19.78
2016-12-10T12:15:30.495Z,19.96
2016-12-10T12:16:29.396Z,20.16
2016-12-10T12:17:29.087Z,20.06
2016-12-10T12:18:29.404Z,19.78
2016-12-10T12:19:29.413Z,20.06
2016-12-10T12:20:29.109Z,20.06
2016-12-10T12:21:29.166Z,19.87
2016-12-10T12:22:29.434Z,20.06
2016-12-10T12:23:29.444Z,20.64
2016-12-10T12:24:29.449Z,19.87
2016-12-10T12:25:29.459Z,20.06
2016-12-10T12:26:30.302Z,20.65
2016-12-10T12:27:29.471Z,20.26
2016-12-10T12:28:29.180Z,20.16
2016-12-10T12:29:29.188Z,20.16
2016-12-10T12:30:29.545Z,20.45
2016-12-10T12:31:29.496Z,20.36
2016-12-10T12:32:29.509Z,20.46
2016-12-10T12:33:29.513Z,20.36
2016-12-10T12:34:29.209Z,20.37
2016-12-10T12:35:29.575Z,20.65
2016-12-10T12:36:29.274Z,20.46
2016-12-10T12:37:29.230Z,20.37
2016-12-10T12:38:29.236Z,20.75
2016-12-10T12:39:29.557Z,20.65
2016-12-10T12:40:29.564Z,20.65
2016-12-10T12:41:29.325Z,20.95
2016-12-10T12:42:29.577Z,21.03
2016-12-10T12:43:29.590Z,20.84
2016-12-10T12:44:29.277Z,21.13
2016-12-10T12:45:29.604Z,21.42
2016-12-10T12:46:29.659Z,21.42
2016-12-10T12:47:29.613Z,21.71
2016-12-10T12:48:30.804Z,21.61
2016-12-10T12:49:29.642Z,21.51
2016-12-10T12:50:29.835Z,22.1
2016-12-10T12:51:29.382Z,21.89
2016-12-10T12:52:30.003Z,21.8
2016-12-10T12:53:29.655Z,21.8
2016-12-10T12:54:29.660Z,21.89